Terminal Aerodrome Forecast
Issued by NWS

Home | Current Version | Previous Version | Text Only | Print | Product List | Glossary Off
Versions: 1 2 3 4 5 6 7 8 9 10 11 12 13 14 15

000
FTUS43 KTOP 281700
TAFFOE
TAF
KFOE 281737Z 2818/2918 12013KT P6SM SKC
     FM290400 17014G21KT P6SM SCT015
     FM290800 19015G22KT P6SM VCSH BKN012
     FM291400 23015G22KT P6SM SCT015
     FM291700 32017G24KT P6SM SKC=

USA.gov is the U.S. government's official web portal to all federal, state and local government web resources and services.